Time;durP1;ratioP1;P1;durP2;ratioP2;P2;SDS_P1;SDS_P2;PMS_P1;PMS_P2;Temp;Humidity;BMP_temperature;BMP_pressure;BME280_temperature;BME280_humidity;BME280_pressure;Samples;Min_cycle;Max_cycle;Signal;HPM_P1;HPM_P2
2021/12/09 00:01:03;;;;;;;;;;;1.00;99.90;;;;;;5034690;28;19925;-79
2021/12/09 00:03:34;;;;;;;;;;;0.90;99.90;;;;;;5034462;28;20384;-79
2021/12/09 00:06:00;;;;;;;;;;;0.90;99.90;;;;;;5033297;28;19927;-79
2021/12/09 00:08:28;;;;;;;;;;;0.90;99.90;;;;;;5034570;28;19921;-79
2021/12/09 00:10:54;;;;;;;;;;;0.90;99.90;;;;;;5033195;28;19928;-79
2021/12/09 00:13:20;;;;;;;;;;;0.90;99.90;;;;;;5034558;28;20368;-79
2021/12/09 00:15:46;;;;;;;;;;;0.90;99.90;;;;;;5034663;28;19921;-79
2021/12/09 00:18:11;;;;;;;;;;;0.90;99.90;;;;;;5033193;28;19921;-79
2021/12/09 00:20:37;;;;;;;;;;;0.90;99.90;;;;;;5034488;28;19921;-79
2021/12/09 00:23:02;;;;;;;;;;;0.90;99.90;;;;;;5034397;28;19968;-79
2021/12/09 00:25:28;;;;;;;;;;;1.00;99.90;;;;;;5034038;28;19916;-80
2021/12/09 00:27:53;;;;;;;;;;;0.90;99.90;;;;;;5034698;28;19921;-79
2021/12/09 00:30:20;;;;;;;;;;;1.00;99.90;;;;;;5034544;28;19917;-79
2021/12/09 00:32:46;;;;;;;;;;;1.00;99.90;;;;;;5034529;28;19921;-79
2021/12/09 00:35:14;;;;;;;;;;;1.00;99.90;;;;;;5034262;28;19925;-79
2021/12/09 00:37:51;;;;;;;;;;;1.10;99.90;;;;;;5034787;28;19928;-79
2021/12/09 00:40:17;;;;;;;;;;;1.10;99.90;;;;;;5032860;28;19921;-79
2021/12/09 00:42:43;;;;;;;;;;;1.10;99.90;;;;;;5034658;28;19928;-79
2021/12/09 00:45:08;;;;;;;;;;;1.10;99.90;;;;;;5033308;28;19921;-79
2021/12/09 00:47:34;;;;;;;;;;;1.10;99.90;;;;;;5035409;28;19921;-79
2021/12/09 00:49:59;;;;;;;;;;;1.20;99.90;;;;;;5037996;28;19924;-79
2021/12/09 00:52:26;;;;;;;;;;;1.10;99.90;;;;;;5036534;28;19967;-79
2021/12/09 00:54:52;;;;;;;;;;;1.10;99.90;;;;;;5036723;28;19924;-79
2021/12/09 00:57:18;;;;;;;;;;;1.00;99.90;;;;;;5034252;28;19928;-79
2021/12/09 00:59:44;;;;;;;;;;;1.00;99.90;;;;;;5038142;28;19921;-79
2021/12/09 01:02:10;;;;;;;;;;;1.40;99.90;;;;;;5037668;28;19917;-79
2021/12/09 01:04:36;;;;;;;;;;;1.00;99.90;;;;;;5038393;28;19925;-79
2021/12/09 01:07:03;;;;;;;;;;;1.00;99.90;;;;;;5037907;28;19920;-79
2021/12/09 01:09:29;;;;;;;;;;;1.00;99.90;;;;;;5037658;28;19967;-79
2021/12/09 01:11:54;;;;;;;;;;;1.00;99.90;;;;;;5037742;28;20287;-79
2021/12/09 01:14:20;;;;;;;;;;;1.00;99.90;;;;;;5038190;28;20078;-79
2021/12/09 01:16:45;;;;;;;;;;;1.00;99.90;;;;;;5038028;28;19928;-79
2021/12/09 01:19:11;;;;;;;;;;;1.00;99.90;;;;;;5037755;28;19925;-79
2021/12/09 01:21:36;;;;;;;;;;;1.00;99.90;;;;;;5038265;28;20371;-79
2021/12/09 01:24:02;;;;;;;;;;;1.00;99.90;;;;;;5036287;28;19921;-79
2021/12/09 01:26:29;;;;;;;;;;;1.00;99.90;;;;;;5037568;28;19927;-79
2021/12/09 01:28:59;;;;;;;;;;;0.90;99.90;;;;;;5036019;28;19921;-79
2021/12/09 01:31:33;;;;;;;;;;;1.00;99.90;;;;;;5037596;28;19921;-79
2021/12/09 01:34:03;;;;;;;;;;;0.90;99.90;;;;;;5036043;28;19971;-79
2021/12/09 01:36:34;;;;;;;;;;;1.30;99.90;;;;;;5036213;28;20364;-79
2021/12/09 01:39:01;;;;;;;;;;;0.90;99.90;;;;;;5035912;28;19921;-79
2021/12/09 01:41:27;;;;;;;;;;;0.90;99.90;;;;;;5036139;28;19928;-79
2021/12/09 01:43:54;;;;;;;;;;;0.80;99.90;;;;;;5035826;28;20016;-79
2021/12/09 01:46:22;;;;;;;;;;;0.80;99.90;;;;;;5036862;28;19920;-79
2021/12/09 01:48:52;;;;;;;;;;;0.80;99.90;;;;;;5035719;28;19963;-79
2021/12/09 01:51:18;;;;;;;;;;;0.80;99.90;;;;;;5037148;28;19928;-79
2021/12/09 01:53:44;;;;;;;;;;;0.80;99.90;;;;;;5035556;28;19921;-79
2021/12/09 01:56:11;;;;;;;;;;;0.80;99.90;;;;;;5036962;28;19921;-79
2021/12/09 01:58:37;;;;;;;;;;;0.80;99.90;;;;;;5036308;28;20011;-79
2021/12/09 02:01:04;;;;;;;;;;;0.80;99.90;;;;;;5036992;28;19964;-80
2021/12/09 02:03:30;;;;;;;;;;;0.80;99.90;;;;;;5036857;28;19921;-79
2021/12/09 02:05:55;;;;;;;;;;;0.80;99.90;;;;;;5035254;28;19927;-79
2021/12/09 02:08:21;;;;;;;;;;;0.80;99.90;;;;;;5036797;28;19925;-79
2021/12/09 02:10:47;;;;;;;;;;;0.80;99.90;;;;;;5036584;28;19975;-79
2021/12/09 02:13:13;;;;;;;;;;;0.80;99.90;;;;;;5036691;28;20368;-79
2021/12/09 02:15:40;;;;;;;;;;;0.80;99.90;;;;;;5036727;28;19921;-79
2021/12/09 02:18:10;;;;;;;;;;;0.80;99.90;;;;;;5035200;28;19921;-79
2021/12/09 02:20:37;;;;;;;;;;;0.80;99.90;;;;;;5036478;28;20000;-79
2021/12/09 02:23:08;;;;;;;;;;;0.80;99.90;;;;;;5036417;28;19983;-79
2021/12/09 02:25:35;;;;;;;;;;;0.70;99.90;;;;;;5034923;28;19928;-79
2021/12/09 02:28:00;;;;;;;;;;;0.80;99.90;;;;;;5035176;28;20287;-79
2021/12/09 02:30:26;;;;;;;;;;;0.70;99.90;;;;;;5034877;28;19921;-79
2021/12/09 02:32:52;;;;;;;;;;;0.70;99.90;;;;;;5036070;28;19925;-79
2021/12/09 02:35:17;;;;;;;;;;;0.70;99.90;;;;;;5036384;28;19967;-79
2021/12/09 02:37:44;;;;;;;;;;;0.70;99.90;;;;;;5034516;28;19917;-79
2021/12/09 02:40:10;;;;;;;;;;;0.70;99.90;;;;;;5035906;28;19921;-79
2021/12/09 02:42:36;;;;;;;;;;;0.70;99.90;;;;;;5035376;28;19917;-79
2021/12/09 02:45:03;;;;;;;;;;;0.70;99.90;;;;;;5036172;28;19984;-79
2021/12/09 02:47:29;;;;;;;;;;;0.70;99.90;;;;;;5034557;28;20010;-79
2021/12/09 02:49:54;;;;;;;;;;;0.70;99.90;;;;;;5035972;28;20375;-79
2021/12/09 02:52:20;;;;;;;;;;;0.70;99.90;;;;;;5035719;28;20291;-79
2021/12/09 02:54:46;;;;;;;;;;;0.70;99.90;;;;;;5035958;28;19927;-79
2021/12/09 02:57:11;;;;;;;;;;;0.70;99.90;;;;;;5036032;28;19928;-79
2021/12/09 02:59:37;;;;;;;;;;;0.70;99.90;;;;;;5035905;28;19921;-79
2021/12/09 03:02:04;;;;;;;;;;;0.70;99.90;;;;;;5036121;28;19968;-79
2021/12/09 03:04:39;;;;;;;;;;;0.70;99.90;;;;;;5035689;28;20391;-79
2021/12/09 03:07:05;;;;;;;;;;;0.60;99.90;;;;;;5035685;28;20430;-79
2021/12/09 03:09:31;;;;;;;;;;;0.60;99.90;;;;;;5034535;28;19921;-79
2021/12/09 03:12:03;;;;;;;;;;;0.60;99.90;;;;;;5035590;28;19921;-79
2021/12/09 03:14:29;;;;;;;;;;;0.60;99.90;;;;;;5035457;28;20295;-79
2021/12/09 03:16:54;;;;;;;;;;;0.60;99.90;;;;;;5035605;28;19921;-79
2021/12/09 03:19:20;;;;;;;;;;;0.60;99.90;;;;;;5034158;28;19921;-79
2021/12/09 03:21:46;;;;;;;;;;;0.60;99.90;;;;;;5035342;28;19967;-79
2021/12/09 03:24:14;;;;;;;;;;;1.60;99.90;;;;;;5033858;28;20256;-79
2021/12/09 03:26:58;;;;;;;;;;;0.50;99.90;;;;;;5035427;28;19921;-79
2021/12/09 03:29:27;;;;;;;;;;;0.60;99.90;;;;;;5035138;28;20022;-79
2021/12/09 03:32:03;;;;;;;;;;;0.60;99.90;;;;;;5035054;28;20367;-79
2021/12/09 03:34:30;;;;;;;;;;;0.60;99.90;;;;;;5034955;28;19928;-79
2021/12/09 03:36:58;;;;;;;;;;;0.60;99.90;;;;;;5033775;28;20278;-79
2021/12/09 03:39:26;;;;;;;;;;;0.50;99.90;;;;;;5035261;28;20019;-79
2021/12/09 03:41:52;;;;;;;;;;;0.60;99.90;;;;;;5035137;28;20362;-79
2021/12/09 03:44:18;;;;;;;;;;;0.60;99.90;;;;;;5034840;28;19964;-79
2021/12/09 03:46:44;;;;;;;;;;;0.50;99.90;;;;;;5034800;28;19921;-79
2021/12/09 03:49:10;;;;;;;;;;;0.50;99.90;;;;;;5034751;28;19921;-79
2021/12/09 03:51:35;;;;;;;;;;;0.50;99.90;;;;;;5034785;28;19943;-79
2021/12/09 03:54:11;;;;;;;;;;;0.50;99.90;;;;;;5034822;28;19924;-79
2021/12/09 03:56:37;;;;;;;;;;;1.00;99.90;;;;;;5033411;28;19921;-79
2021/12/09 03:59:04;;;;;;;;;;;0.50;99.90;;;;;;5034635;28;19966;-79
2021/12/09 04:01:29;;;;;;;;;;;0.50;99.90;;;;;;5033383;28;19921;-79
2021/12/09 04:03:55;;;;;;;;;;;0.50;99.90;;;;;;5033311;28;19974;-79
2021/12/09 04:06:20;;;;;;;;;;;0.50;99.90;;;;;;5034695;28;19921;-79
2021/12/09 04:08:48;;;;;;;;;;;0.50;99.90;;;;;;5033515;28;19921;-79
2021/12/09 04:11:14;;;;;;;;;;;0.90;99.90;;;;;;5034758;28;19927;-79
2021/12/09 04:13:40;;;;;;;;;;;0.50;99.90;;;;;;5033132;28;19921;-79
2021/12/09 04:16:07;;;;;;;;;;;0.50;99.90;;;;;;5034631;28;19928;-79
2021/12/09 04:18:36;;;;;;;;;;;1.00;99.90;;;;;;5033318;28;20375;-79
2021/12/09 04:21:02;;;;;;;;;;;0.50;99.90;;;;;;5033969;28;20383;-79
2021/12/09 04:23:28;;;;;;;;;;;0.60;99.90;;;;;;5034445;28;19921;-79
2021/12/09 04:25:53;;;;;;;;;;;0.60;99.90;;;;;;5034393;28;19921;-79
2021/12/09 04:28:19;;;;;;;;;;;0.60;99.90;;;;;;5034124;28;20011;-79
2021/12/09 04:30:45;;;;;;;;;;;0.60;99.90;;;;;;5034385;28;19921;-79
2021/12/09 04:33:11;;;;;;;;;;;0.50;99.90;;;;;;5034222;28;19921;-79
2021/12/09 04:35:36;;;;;;;;;;;0.60;99.90;;;;;;5034238;28;20008;-79
2021/12/09 04:38:02;;;;;;;;;;;0.50;99.90;;;;;;5034429;28;19921;-79
2021/12/09 04:40:27;;;;;;;;;;;0.50;99.90;;;;;;5032782;28;19921;-79
2021/12/09 04:42:53;;;;;;;;;;;0.50;99.90;;;;;;5032952;28;19921;-79
2021/12/09 04:45:18;;;;;;;;;;;0.50;99.90;;;;;;5034364;28;19928;-79
2021/12/09 04:47:44;;;;;;;;;;;0.50;99.90;;;;;;5035004;28;19925;-79
2021/12/09 04:50:10;;;;;;;;;;;0.50;99.90;;;;;;5035170;28;19971;-79
2021/12/09 04:52:35;;;;;;;;;;;0.50;99.90;;;;;;5032875;28;19925;-79
2021/12/09 04:55:01;;;;;;;;;;;0.50;99.90;;;;;;5034239;28;19925;-79
2021/12/09 04:57:27;;;;;;;;;;;0.50;99.90;;;;;;5034085;28;19921;-79
2021/12/09 04:59:52;;;;;;;;;;;0.40;99.90;;;;;;5033993;28;19921;-79
2021/12/09 05:02:30;;;;;;;;;;;0.40;99.90;;;;;;5032774;28;19962;-79
2021/12/09 05:04:56;;;;;;;;;;;0.50;99.90;;;;;;5034250;28;19921;-79
2021/12/09 05:07:21;;;;;;;;;;;0.40;99.90;;;;;;5033801;28;20394;-79
2021/12/09 05:09:51;;;;;;;;;;;0.40;99.90;;;;;;5032598;28;19925;-79
2021/12/09 05:12:17;;;;;;;;;;;0.40;99.90;;;;;;5034037;28;20336;-79
2021/12/09 05:14:45;;;;;;;;;;;0.40;99.90;;;;;;5034068;28;19921;-79
2021/12/09 05:17:11;;;;;;;;;;;0.40;99.90;;;;;;5033889;28;20192;-79
2021/12/09 05:19:37;;;;;;;;;;;0.40;99.90;;;;;;5033542;28;19925;-79
2021/12/09 05:22:03;;;;;;;;;;;0.40;99.90;;;;;;5033993;28;19921;-79
2021/12/09 05:24:28;;;;;;;;;;;0.40;99.90;;;;;;5034022;28;19917;-79
2021/12/09 05:26:55;;;;;;;;;;;0.40;99.90;;;;;;5032269;28;19944;-79
2021/12/09 05:29:27;;;;;;;;;;;0.40;99.90;;;;;;5032549;28;20112;-79
2021/12/09 05:32:07;;;;;;;;;;;0.40;99.90;;;;;;5033589;28;20008;-79
2021/12/09 05:34:38;;;;;;;;;;;0.30;99.90;;;;;;5037416;28;19925;-79
2021/12/09 05:37:05;;;;;;;;;;;0.30;99.90;;;;;;5037549;28;19921;-79
2021/12/09 05:39:30;;;;;;;;;;;0.30;99.90;;;;;;5036352;28;19921;-79
2021/12/09 05:41:59;;;;;;;;;;;0.30;99.90;;;;;;5035907;28;20436;-79
2021/12/09 05:44:25;;;;;;;;;;;0.30;99.90;;;;;;5035698;28;20364;-79
2021/12/09 05:46:51;;;;;;;;;;;0.30;99.90;;;;;;5037054;28;19921;-79
2021/12/09 05:49:16;;;;;;;;;;;0.30;99.90;;;;;;5037056;28;19925;-79
2021/12/09 05:51:42;;;;;;;;;;;0.30;99.90;;;;;;5019044;28;20402;-79
2021/12/09 05:54:08;;;;;;;;;;;0.30;99.90;;;;;;5035510;28;19921;-79
2021/12/09 05:56:34;;;;;;;;;;;0.20;99.90;;;;;;5037103;28;20028;-79
2021/12/09 05:59:00;;;;;;;;;;;0.20;99.90;;;;;;5036863;28;20323;-79
2021/12/09 06:01:26;;;;;;;;;;;0.20;99.90;;;;;;5036993;28;19921;-79
2021/12/09 06:03:52;;;;;;;;;;;0.20;99.90;;;;;;5036816;28;19975;-79
2021/12/09 06:06:18;;;;;;;;;;;0.20;99.90;;;;;;5037064;28;19924;-79
2021/12/09 06:08:43;;;;;;;;;;;0.20;99.90;;;;;;5036902;28;19924;-79
2021/12/09 06:11:10;;;;;;;;;;;0.20;99.90;;;;;;5035315;28;19925;-79
2021/12/09 06:13:37;;;;;;;;;;;0.20;99.90;;;;;;5036573;28;19921;-79
2021/12/09 06:16:03;;;;;;;;;;;0.20;99.90;;;;;;5036743;28;20401;-79
2021/12/09 06:18:30;;;;;;;;;;;0.20;99.90;;;;;;5036663;28;20024;-79
2021/12/09 06:20:56;;;;;;;;;;;0.20;99.90;;;;;;5036729;28;20360;-79
2021/12/09 06:23:21;;;;;;;;;;;0.20;99.90;;;;;;5036496;28;19925;-79
2021/12/09 06:25:49;;;;;;;;;;;0.20;99.90;;;;;;5036258;28;20003;-79
2021/12/09 06:28:15;;;;;;;;;;;0.20;99.90;;;;;;5035034;28;19921;-79
2021/12/09 06:30:41;;;;;;;;;;;0.20;99.90;;;;;;5036567;28;20249;-79
2021/12/09 06:33:06;;;;;;;;;;;0.20;99.90;;;;;;5036132;28;19921;-79
2021/12/09 06:35:33;;;;;;;;;;;0.30;99.90;;;;;;5034938;28;19921;-79
2021/12/09 06:37:59;;;;;;;;;;;0.30;99.90;;;;;;5035384;28;20279;-79
2021/12/09 06:40:25;;;;;;;;;;;0.30;99.90;;;;;;5035091;28;20012;-79
2021/12/09 06:42:51;;;;;;;;;;;0.30;99.90;;;;;;5036533;28;20501;-79
2021/12/09 06:45:18;;;;;;;;;;;0.30;99.90;;;;;;5036107;28;20372;-79
2021/12/09 06:47:45;;;;;;;;;;;0.30;99.90;;;;;;5036429;28;19925;-79
2021/12/09 06:50:11;;;;;;;;;;;0.30;99.90;;;;;;5037135;28;19920;-79
2021/12/09 06:52:37;;;;;;;;;;;0.30;99.90;;;;;;5036349;28;19928;-79
2021/12/09 06:55:07;;;;;;;;;;;0.20;99.90;;;;;;5036463;28;19921;-79
2021/12/09 06:57:33;;;;;;;;;;;0.20;99.90;;;;;;5036204;28;20011;-79
2021/12/09 06:59:58;;;;;;;;;;;0.20;99.90;;;;;;5036162;28;19959;-79
2021/12/09 07:02:24;;;;;;;;;;;0.10;99.90;;;;;;5034471;28;19921;-80
2021/12/09 07:04:49;;;;;;;;;;;0.10;99.90;;;;;;5034882;28;19925;-79
2021/12/09 07:07:15;;;;;;;;;;;0.40;99.90;;;;;;5036023;28;19921;-79
2021/12/09 07:09:40;;;;;;;;;;;0.10;99.90;;;;;;5035979;28;19921;-80
2021/12/09 07:12:06;;;;;;;;;;;0.10;99.90;;;;;;5035116;28;19928;-79
2021/12/09 07:14:32;;;;;;;;;;;0.00;99.90;;;;;;5034938;28;19925;-79
2021/12/09 07:16:58;;;;;;;;;;;0.10;99.90;;;;;;5035894;28;19921;-79
2021/12/09 07:19:23;;;;;;;;;;;0.00;99.90;;;;;;5034327;28;19925;-79
2021/12/09 07:21:49;;;;;;;;;;;0.80;99.90;;;;;;5036241;28;19921;-79
2021/12/09 07:24:14;;;;;;;;;;;0.00;99.90;;;;;;5035692;28;19965;-79
2021/12/09 07:26:40;;;;;;;;;;;0.00;99.90;;;;;;5035447;28;19967;-79
2021/12/09 07:29:06;;;;;;;;;;;0.00;99.90;;;;;;5035194;28;19927;-79
2021/12/09 07:31:31;;;;;;;;;;;0.00;99.90;;;;;;5034952;28;20004;-79
2021/12/09 07:33:57;;;;;;;;;;;0.00;99.90;;;;;;5035313;28;19947;-79
2021/12/09 07:36:23;;;;;;;;;;;0.00;99.90;;;;;;5035430;28;19960;-79
2021/12/09 07:38:49;;;;;;;;;;;0.00;99.90;;;;;;5035903;28;20402;-79
2021/12/09 07:41:15;;;;;;;;;;;0.00;99.90;;;;;;5035609;28;19921;-79
2021/12/09 07:43:41;;;;;;;;;;;0.10;99.90;;;;;;5033966;28;19921;-80
2021/12/09 07:46:06;;;;;;;;;;;0.00;99.90;;;;;;5035538;28;19975;-79
2021/12/09 07:48:32;;;;;;;;;;;0.10;99.90;;;;;;5033651;28;20020;-80
2021/12/09 07:50:57;;;;;;;;;;;0.10;99.90;;;;;;5035265;28;20019;-79
2021/12/09 07:53:23;;;;;;;;;;;0.10;99.90;;;;;;5033903;28;19928;-79
2021/12/09 07:55:50;;;;;;;;;;;0.10;99.90;;;;;;5034970;28;19921;-79
2021/12/09 07:58:15;;;;;;;;;;;0.10;99.90;;;;;;5034990;28;19921;-79
2021/12/09 08:00:41;;;;;;;;;;;0.10;99.90;;;;;;5035482;28;20430;-79
2021/12/09 08:03:07;;;;;;;;;;;0.00;99.90;;;;;;5033888;28;19917;-79
2021/12/09 08:05:34;;;;;;;;;;;0.00;99.90;;;;;;5035236;28;19921;-79
2021/12/09 08:07:59;;;;;;;;;;;0.00;99.90;;;;;;5033722;28;19925;-79
2021/12/09 08:10:26;;;;;;;;;;;0.00;99.90;;;;;;5033977;28;19928;-79
2021/12/09 08:12:52;;;;;;;;;;;0.10;99.90;;;;;;5033846;28;20287;-79
2021/12/09 08:15:18;;;;;;;;;;;0.00;99.90;;;;;;5035233;28;19921;-79
2021/12/09 08:17:46;;;;;;;;;;;0.30;99.90;;;;;;5034512;28;20387;-79
2021/12/09 08:20:15;;;;;;;;;;;0.10;99.90;;;;;;5034597;28;19925;-80
2021/12/09 08:22:42;;;;;;;;;;;0.50;99.90;;;;;;5033572;28;19943;-79
2021/12/09 08:25:09;;;;;;;;;;;0.10;99.90;;;;;;5034865;28;19928;-79
2021/12/09 08:27:35;;;;;;;;;;;0.10;99.90;;;;;;5034736;28;19956;-79
2021/12/09 08:30:02;;;;;;;;;;;0.20;99.90;;;;;;5033475;28;19921;-79
2021/12/09 08:32:28;;;;;;;;;;;0.20;99.90;;;;;;5034786;28;19921;-79
2021/12/09 08:34:54;;;;;;;;;;;0.20;99.90;;;;;;5034434;28;20269;-79
2021/12/09 08:37:19;;;;;;;;;;;0.20;99.90;;;;;;5034783;28;19927;-79
2021/12/09 08:39:45;;;;;;;;;;;0.20;99.90;;;;;;5033700;28;19974;-79
2021/12/09 08:42:11;;;;;;;;;;;0.20;99.90;;;;;;5034486;28;20373;-79
2021/12/09 08:44:36;;;;;;;;;;;0.30;99.90;;;;;;5032945;28;19921;-79
2021/12/09 08:47:02;;;;;;;;;;;0.30;99.90;;;;;;5034709;28;20303;-79
2021/12/09 08:49:28;;;;;;;;;;;0.30;99.90;;;;;;5034332;28;19921;-80
2021/12/09 08:51:53;;;;;;;;;;;0.30;99.90;;;;;;5032965;28;19979;-79
2021/12/09 08:54:19;;;;;;;;;;;0.40;99.90;;;;;;5034310;28;20276;-79
2021/12/09 08:56:50;;;;;;;;;;;0.40;99.90;;;;;;5034488;28;20390;-79
2021/12/09 08:59:16;;;;;;;;;;;0.50;99.90;;;;;;5034161;28;20003;-79
2021/12/09 09:01:42;;;;;;;;;;;0.50;99.90;;;;;;5034244;28;20462;-79
2021/12/09 09:04:07;;;;;;;;;;;0.50;99.90;;;;;;5034493;28;20019;-79
2021/12/09 09:06:33;;;;;;;;;;;0.60;99.90;;;;;;5034390;28;19936;-79
2021/12/09 09:08:59;;;;;;;;;;;0.60;99.90;;;;;;5036373;28;19921;-79
2021/12/09 09:11:24;;;;;;;;;;;0.60;99.90;;;;;;5038844;28;19921;-79
2021/12/09 09:13:50;;;;;;;;;;;0.70;99.90;;;;;;5038175;28;19921;-80
2021/12/09 09:16:16;;;;;;;;;;;0.70;99.90;;;;;;5036818;28;19921;-79
2021/12/09 09:18:42;;;;;;;;;;;0.70;99.90;;;;;;5038565;28;19925;-79
2021/12/09 09:21:07;;;;;;;;;;;0.70;99.90;;;;;;5038052;28;19921;-79
2021/12/09 09:23:33;;;;;;;;;;;0.80;99.90;;;;;;5036830;28;19960;-79
2021/12/09 09:25:58;;;;;;;;;;;0.80;99.90;;;;;;5038643;28;19967;-79
2021/12/09 09:28:24;;;;;;;;;;;0.80;99.90;;;;;;5038112;28;19927;-79
2021/12/09 09:30:53;;;;;;;;;;;0.80;99.90;;;;;;5037747;28;19975;-80
2021/12/09 09:33:20;;;;;;;;;;;0.90;99.90;;;;;;5038323;28;19928;-79
2021/12/09 09:35:46;;;;;;;;;;;0.90;99.90;;;;;;5038277;28;19928;-79
2021/12/09 09:38:12;;;;;;;;;;;0.90;99.90;;;;;;5037575;28;19944;-79
2021/12/09 09:40:46;;;;;;;;;;;1.00;99.90;;;;;;5038140;28;20372;-79
2021/12/09 09:43:25;;;;;;;;;;;1.00;99.90;;;;;;5038418;28;19932;-79
2021/12/09 09:45:52;;;;;;;;;;;1.10;99.90;;;;;;5037833;28;19988;-80
2021/12/09 09:48:17;;;;;;;;;;;1.10;99.90;;;;;;5036771;28;19921;-79
2021/12/09 09:50:43;;;;;;;;;;;1.20;99.90;;;;;;5037218;28;19925;-79
2021/12/09 09:53:10;;;;;;;;;;;1.30;99.90;;;;;;5037833;28;19927;-79
2021/12/09 09:55:35;;;;;;;;;;;1.30;99.90;;;;;;5038356;28;19979;-79
2021/12/09 09:58:01;;;;;;;;;;;1.40;99.90;;;;;;5037457;28;19921;-80
2021/12/09 10:00:27;;;;;;;;;;;1.50;99.90;;;;;;5052729;28;19928;-79
2021/12/09 10:02:54;;;;;;;;;;;1.50;99.90;;;;;;5036476;28;20354;-80
2021/12/09 10:05:22;;;;;;;;;;;1.50;99.90;;;;;;5038273;28;20015;-79
2021/12/09 10:07:49;;;;;;;;;;;1.60;99.90;;;;;;5038197;28;20299;-79
2021/12/09 10:10:15;;;;;;;;;;;1.60;99.90;;;;;;5037726;28;20379;-80
2021/12/09 10:13:03;;;;;;;;;;;1.70;99.90;;;;;;5038466;28;19965;-79
2021/12/09 10:15:38;;;;;;;;;;;1.70;99.90;;;;;;4976794;28;19926;-80
2021/12/09 10:18:04;;;;;;;;;;;1.70;99.90;;;;;;4976151;28;19936;-80
2021/12/09 10:20:49;;;;;;;;;;;1.80;99.90;;;;;;4977288;28;20009;-80
2021/12/09 10:23:31;;;;;;;;;;;1.80;99.90;;;;;;4959977;28;20369;-80
2021/12/09 10:26:26;;;;;;;;;;;1.90;99.90;;;;;;4976166;28;19928;-80
2021/12/09 10:28:54;;;;;;;;;;;1.90;99.90;;;;;;4947355;28;20443;-79
2021/12/09 10:31:24;;;;;;;;;;;1.90;99.90;;;;;;4975741;28;19957;-79
2021/12/09 10:33:58;;;;;;;;;;;2.00;99.90;;;;;;4975573;28;19922;-79
2021/12/09 10:36:59;;;;;;;;;;;2.00;99.90;;;;;;4975758;28;19980;-80
2021/12/09 10:39:25;;;;;;;;;;;2.10;99.90;;;;;;4917719;29;20401;-79
2021/12/09 10:41:51;;;;;;;;;;;2.10;99.90;;;;;;4917348;29;19923;-79
2021/12/09 10:44:16;;;;;;;;;;;2.20;99.90;;;;;;4917492;29;20348;-79
2021/12/09 10:46:55;;;;;;;;;;;2.20;99.90;;;;;;4917632;29;20026;-79
2021/12/09 10:49:21;;;;;;;;;;;2.30;99.90;;;;;;4901356;29;19951;-79
2021/12/09 10:51:57;;;;;;;;;;;2.30;99.90;;;;;;4914028;28;20323;-79
2021/12/09 10:54:33;;;;;;;;;;;2.30;99.90;;;;;;4974769;28;19925;-79
2021/12/09 10:57:17;;;;;;;;;;;2.30;99.90;;;;;;4974700;28;19922;-79
2021/12/09 10:59:42;;;;;;;;;;;2.40;99.90;;;;;;4974127;28;19922;-79
2021/12/09 11:02:08;;;;;;;;;;;2.40;99.90;;;;;;4973763;28;19924;-79
2021/12/09 11:04:33;;;;;;;;;;;2.40;99.90;;;;;;4974285;28;19945;-79
2021/12/09 11:06:59;;;;;;;;;;;2.40;99.90;;;;;;4974305;28;19945;-79
2021/12/09 11:09:24;;;;;;;;;;;2.40;99.90;;;;;;4974178;28;20398;-79
2021/12/09 11:11:55;;;;;;;;;;;3.20;99.90;;;;;;4957985;28;19924;-79
2021/12/09 11:14:23;;;;;;;;;;;2.50;99.90;;;;;;5028273;28;20299;-79
2021/12/09 11:16:55;;;;;;;;;;;2.50;99.90;;;;;;5033578;28;19921;-79
2021/12/09 11:19:35;;;;;;;;;;;2.50;99.90;;;;;;5035359;28;19921;-79
2021/12/09 11:22:03;;;;;;;;;;;2.50;99.90;;;;;;5033549;28;19971;-79
2021/12/09 11:24:32;;;;;;;;;;;2.50;99.90;;;;;;5035149;28;19928;-79
2021/12/09 11:27:01;;;;;;;;;;;2.50;99.90;;;;;;5034931;28;19928;-80
2021/12/09 11:29:30;;;;;;;;;;;2.60;99.90;;;;;;5017286;28;19921;-79
2021/12/09 11:32:10;;;;;;;;;;;2.60;99.90;;;;;;5035624;28;19921;-79
2021/12/09 11:34:41;;;;;;;;;;;2.60;99.90;;;;;;5034468;28;20330;-79
2021/12/09 11:37:09;;;;;;;;;;;3.30;99.90;;;;;;5034082;28;19921;-79
2021/12/09 11:39:36;;;;;;;;;;;2.70;99.90;;;;;;5034235;28;19928;-79
2021/12/09 11:42:09;;;;;;;;;;;2.70;99.90;;;;;;5032568;28;19925;-79
2021/12/09 11:44:35;;;;;;;;;;;2.70;99.90;;;;;;5033903;28;19988;-79
2021/12/09 11:47:02;;;;;;;;;;;2.80;99.90;;;;;;5033891;28;19928;-79
2021/12/09 11:49:27;;;;;;;;;;;2.80;99.90;;;;;;5034023;28;19921;-79
2021/12/09 11:51:53;;;;;;;;;;;2.80;99.90;;;;;;5033682;28;19921;-79
2021/12/09 11:54:19;;;;;;;;;;;2.80;99.90;;;;;;5033993;28;19921;-79
2021/12/09 11:56:58;;;;;;;;;;;2.90;99.90;;;;;;4996002;28;1092497;-79
2021/12/09 12:08:01;;;;;;;;;;;3.00;99.90;;;;;;4973551;28;20316;-79
2021/12/09 12:13:42;;;;;;;;;;;3.10;99.90;;;;;;4973398;28;19922;-79
2021/12/09 12:16:26;;;;;;;;;;;3.10;99.90;;;;;;4957431;28;19945;-79
2021/12/09 12:19:05;;;;;;;;;;;3.10;99.90;;;;;;4973505;28;19976;-79
2021/12/09 12:39:47;;;;;;;;;;;3.30;99.90;;;;;;4957112;28;20352;-79
2021/12/09 12:42:31;;;;;;;;;;;3.30;99.90;;;;;;5017418;28;19979;-79
2021/12/09 12:45:23;;;;;;;;;;;3.30;99.90;;;;;;5036975;28;20003;-79
2021/12/09 12:47:59;;;;;;;;;;;3.30;99.90;;;;;;5037265;28;19921;-79
2021/12/09 12:50:24;;;;;;;;;;;3.30;99.90;;;;;;5037206;28;19928;-79
2021/12/09 12:52:50;;;;;;;;;;;3.60;99.90;;;;;;5038560;28;19921;-79
2021/12/09 12:55:20;;;;;;;;;;;3.30;99.90;;;;;;5038291;28;19964;-79
2021/12/09 12:57:51;;;;;;;;;;;3.30;99.90;;;;;;5038388;28;20339;-79
2021/12/09 13:00:17;;;;;;;;;;;3.30;99.90;;;;;;5038372;28;19921;-79
2021/12/09 13:03:06;;;;;;;;;;;3.30;99.90;;;;;;5038151;28;19971;-79
2021/12/09 13:08:51;;;;;;;;;;;3.30;99.90;;;;;;5038311;28;19927;-79
2021/12/09 13:11:37;;;;;;;;;;;3.30;99.90;;;;;;5036895;28;20398;-79
2021/12/09 13:14:06;;;;;;;;;;;3.40;99.90;;;;;;5038536;28;19928;-80
2021/12/09 13:21:55;;;;;;;;;;;3.40;99.90;;;;;;5038013;28;19920;-79
2021/12/09 13:29:57;;;;;;;;;;;3.40;99.90;;;;;;5038594;28;19927;-79
2021/12/09 13:48:40;;;;;;;;;;;3.50;99.90;;;;;;4957373;29;19929;-79
2021/12/09 13:51:19;;;;;;;;;;;3.40;99.90;;;;;;4925344;28;20002;-79
2021/12/09 13:54:16;;;;;;;;;;;3.40;99.90;;;;;;4956300;28;19929;-79
2021/12/09 13:56:42;;;;;;;;;;;3.40;99.90;;;;;;4957315;29;19933;-79
2021/12/09 13:59:18;;;;;;;;;;;3.40;99.90;;;;;;4956859;29;19922;-79
2021/12/09 14:01:44;;;;;;;;;;;3.40;99.90;;;;;;4957166;29;19922;-79
2021/12/09 14:04:09;;;;;;;;;;;3.50;99.90;;;;;;4956706;29;20420;-79
2021/12/09 14:06:35;;;;;;;;;;;3.50;99.90;;;;;;4956599;29;19950;-79
2021/12/09 14:09:00;;;;;;;;;;;3.50;99.90;;;;;;4940535;29;19922;-79
2021/12/09 14:11:34;;;;;;;;;;;3.50;99.90;;;;;;4956212;29;19922;-79
2021/12/09 14:14:05;;;;;;;;;;;3.40;99.90;;;;;;4956427;29;19922;-79
2021/12/09 14:21:26;;;;;;;;;;;3.50;99.90;;;;;;4955973;29;19926;-79
2021/12/09 14:24:08;;;;;;;;;;;3.40;99.90;;;;;;4991304;28;19983;-79
2021/12/09 14:26:34;;;;;;;;;;;3.50;99.90;;;;;;5036249;28;19948;-79
2021/12/09 14:29:00;;;;;;;;;;;3.50;99.90;;;;;;5036361;28;19944;-79
2021/12/09 14:31:26;;;;;;;;;;;3.50;99.90;;;;;;5035226;28;20284;-79
2021/12/09 14:33:51;;;;;;;;;;;3.90;99.90;;;;;;5034647;28;19925;-79
2021/12/09 14:36:18;;;;;;;;;;;3.50;99.90;;;;;;5035984;28;20008;-79
2021/12/09 14:38:44;;;;;;;;;;;4.20;99.90;;;;;;5035939;28;20422;-79
2021/12/09 14:41:17;;;;;;;;;;;3.50;99.90;;;;;;5036154;28;19963;-79
2021/12/09 14:43:46;;;;;;;;;;;3.50;99.90;;;;;;5034931;28;20291;-79
2021/12/09 14:46:18;;;;;;;;;;;3.50;99.90;;;;;;5034481;28;19971;-79
2021/12/09 14:48:46;;;;;;;;;;;3.50;99.90;;;;;;5035693;28;19944;-79
2021/12/09 14:51:16;;;;;;;;;;;3.50;99.90;;;;;;5036986;28;20303;-80
2021/12/09 14:53:52;;;;;;;;;;;3.50;99.90;;;;;;5019712;28;19964;-79
2021/12/09 14:56:31;;;;;;;;;;;3.50;99.90;;;;;;5036279;28;20290;-79
2021/12/09 14:59:15;;;;;;;;;;;3.50;99.90;;;;;;5035849;28;20337;-79
2021/12/09 15:01:41;;;;;;;;;;;3.60;99.90;;;;;;5034552;28;19925;-79
2021/12/09 15:04:14;;;;;;;;;;;3.60;99.90;;;;;;5034527;28;19921;-79
2021/12/09 15:06:43;;;;;;;;;;;3.60;99.90;;;;;;5033649;28;19970;-79
2021/12/09 15:09:14;;;;;;;;;;;3.80;99.90;;;;;;5035868;28;19921;-79
2021/12/09 15:11:41;;;;;;;;;;;3.60;99.90;;;;;;5035575;28;19988;-79
2021/12/09 15:14:14;;;;;;;;;;;3.60;99.90;;;;;;5035244;28;19921;-79
2021/12/09 15:16:39;;;;;;;;;;;3.60;99.90;;;;;;5035520;28;20010;-79
2021/12/09 15:19:19;;;;;;;;;;;3.60;99.90;;;;;;5034033;28;19960;-79
2021/12/09 15:21:59;;;;;;;;;;;3.60;99.90;;;;;;5036515;28;19921;-79
2021/12/09 15:24:25;;;;;;;;;;;3.60;99.90;;;;;;5036008;28;19917;-79
2021/12/09 15:26:51;;;;;;;;;;;3.60;99.90;;;;;;5035366;28;20004;-79
2021/12/09 15:29:20;;;;;;;;;;;3.60;99.90;;;;;;5035602;28;19917;-79
2021/12/09 15:32:00;;;;;;;;;;;3.60;99.90;;;;;;5034014;28;19920;-79
2021/12/09 15:34:31;;;;;;;;;;;3.70;99.90;;;;;;5035045;28;19927;-79
2021/12/09 15:36:58;;;;;;;;;;;3.60;99.90;;;;;;5034189;28;20337;-79
2021/12/09 15:39:26;;;;;;;;;;;3.60;99.90;;;;;;5035456;28;19940;-79
2021/12/09 15:41:58;;;;;;;;;;;3.70;99.90;;;;;;5034258;28;20387;-79